sensor_id;sensor_type;location;lat;lon;timestamp;P1;durP1;ratioP1;P2;durP2;ratioP2
73072;SDS011;61260;51.090;-1.786;2022-09-19T00:00:19;1.00;;;0.60;;
73072;SDS011;61260;51.090;-1.786;2022-09-19T00:02:50;0.80;;;0.50;;
73072;SDS011;61260;51.090;-1.786;2022-09-19T00:05:19;1.30;;;0.40;;
73072;SDS011;61260;51.090;-1.786;2022-09-19T00:07:50;1.30;;;0.60;;
73072;SDS011;61260;51.090;-1.786;2022-09-19T00:10:20;0.70;;;0.60;;
73072;SDS011;61260;51.090;-1.786;2022-09-19T00:12:50;2.00;;;0.50;;
73072;SDS011;61260;51.090;-1.786;2022-09-19T00:15:22;4.80;;;0.60;;
73072;SDS011;61260;51.090;-1.786;2022-09-19T00:17:52;2.20;;;0.60;;
73072;SDS011;61260;51.090;-1.786;2022-09-19T00:20:23;1.60;;;0.40;;
73072;SDS011;61260;51.090;-1.786;2022-09-19T00:22:53;1.10;;;0.40;;
73072;SDS011;61260;51.090;-1.786;2022-09-19T00:25:41;2.10;;;0.70;;
73072;SDS011;61260;51.090;-1.786;2022-09-19T00:28:11;0.80;;;0.50;;
73072;SDS011;61260;51.090;-1.786;2022-09-19T00:30:42;1.20;;;0.60;;
73072;SDS011;61260;51.090;-1.786;2022-09-19T00:33:12;1.10;;;0.50;;
73072;SDS011;61260;51.090;-1.786;2022-09-19T00:35:42;0.80;;;0.50;;
73072;SDS011;61260;51.090;-1.786;2022-09-19T00:38:12;2.00;;;0.80;;
73072;SDS011;61260;51.090;-1.786;2022-09-19T00:40:42;1.50;;;0.90;;
73072;SDS011;61260;51.090;-1.786;2022-09-19T00:43:12;1.60;;;0.90;;
73072;SDS011;61260;51.090;-1.786;2022-09-19T00:45:44;2.40;;;1.10;;
73072;SDS011;61260;51.090;-1.786;2022-09-19T00:48:15;1.80;;;0.80;;
73072;SDS011;61260;51.090;-1.786;2022-09-19T00:50:50;1.10;;;0.70;;
73072;SDS011;61260;51.090;-1.786;2022-09-19T00:53:22;1.80;;;0.80;;
73072;SDS011;61260;51.090;-1.786;2022-09-19T00:55:54;1.50;;;0.70;;
73072;SDS011;61260;51.090;-1.786;2022-09-19T00:58:26;1.90;;;0.50;;
73072;SDS011;61260;51.090;-1.786;2022-09-19T01:00:59;1.50;;;0.70;;
73072;SDS011;61260;51.090;-1.786;2022-09-19T01:03:29;1.60;;;0.70;;
73072;SDS011;61260;51.090;-1.786;2022-09-19T01:06:02;2.50;;;0.70;;
73072;SDS011;61260;51.090;-1.786;2022-09-19T01:08:44;1.80;;;0.50;;
73072;SDS011;61260;51.090;-1.786;2022-09-19T01:14:18;0.80;;;0.50;;
73072;SDS011;61260;51.090;-1.786;2022-09-19T01:16:59;0.50;;;0.40;;
73072;SDS011;61260;51.090;-1.786;2022-09-19T01:19:39;0.60;;;0.40;;
73072;SDS011;61260;51.090;-1.786;2022-09-19T01:22:25;2.20;;;0.80;;
73072;SDS011;61260;51.090;-1.786;2022-09-19T01:25:10;0.70;;;0.40;;
73072;SDS011;61260;51.090;-1.786;2022-09-19T01:30:48;2.30;;;0.60;;
73072;SDS011;61260;51.090;-1.786;2022-09-19T01:33:38;2.00;;;0.90;;
73072;SDS011;61260;51.090;-1.786;2022-09-19T01:36:12;3.20;;;1.00;;
73072;SDS011;61260;51.090;-1.786;2022-09-19T01:38:44;1.10;;;0.60;;
73072;SDS011;61260;51.090;-1.786;2022-09-19T01:41:18;1.20;;;0.60;;
73072;SDS011;61260;51.090;-1.786;2022-09-19T01:43:49;1.50;;;0.60;;
73072;SDS011;61260;51.090;-1.786;2022-09-19T01:46:22;1.20;;;0.70;;
73072;SDS011;61260;51.090;-1.786;2022-09-19T01:48:59;0.90;;;0.40;;
73072;SDS011;61260;51.090;-1.786;2022-09-19T01:51:36;0.60;;;0.60;;
73072;SDS011;61260;51.090;-1.786;2022-09-19T01:54:25;2.50;;;0.60;;
73072;SDS011;61260;51.090;-1.786;2022-09-19T01:57:06;0.90;;;0.70;;
73072;SDS011;61260;51.090;-1.786;2022-09-19T01:59:45;1.30;;;0.40;;
73072;SDS011;61260;51.090;-1.786;2022-09-19T02:02:27;0.80;;;0.50;;
73072;SDS011;61260;51.090;-1.786;2022-09-19T02:05:05;0.50;;;0.40;;
73072;SDS011;61260;51.090;-1.786;2022-09-19T02:07:41;0.60;;;0.50;;
73072;SDS011;61260;51.090;-1.786;2022-09-19T02:10:21;1.30;;;0.50;;
73072;SDS011;61260;51.090;-1.786;2022-09-19T02:12:56;0.60;;;0.40;;
73072;SDS011;61260;51.090;-1.786;2022-09-19T02:15:29;1.80;;;0.50;;
73072;SDS011;61260;51.090;-1.786;2022-09-19T02:18:05;1.40;;;0.50;;
73072;SDS011;61260;51.090;-1.786;2022-09-19T02:20:37;1.10;;;0.50;;
73072;SDS011;61260;51.090;-1.786;2022-09-19T02:23:18;1.60;;;0.50;;
73072;SDS011;61260;51.090;-1.786;2022-09-19T02:25:52;0.70;;;0.50;;
73072;SDS011;61260;51.090;-1.786;2022-09-19T02:28:25;3.00;;;0.50;;
73072;SDS011;61260;51.090;-1.786;2022-09-19T02:30:59;0.80;;;0.60;;
73072;SDS011;61260;51.090;-1.786;2022-09-19T02:33:31;0.90;;;0.60;;
73072;SDS011;61260;51.090;-1.786;2022-09-19T02:36:05;1.60;;;0.50;;
73072;SDS011;61260;51.090;-1.786;2022-09-19T02:38:44;1.30;;;0.50;;
73072;SDS011;61260;51.090;-1.786;2022-09-19T02:41:20;1.40;;;0.70;;
73072;SDS011;61260;51.090;-1.786;2022-09-19T02:43:54;0.80;;;0.50;;
73072;SDS011;61260;51.090;-1.786;2022-09-19T02:46:30;1.60;;;0.60;;
73072;SDS011;61260;51.090;-1.786;2022-09-19T02:49:07;0.80;;;0.50;;
73072;SDS011;61260;51.090;-1.786;2022-09-19T02:51:43;1.30;;;0.60;;
73072;SDS011;61260;51.090;-1.786;2022-09-19T02:54:19;1.70;;;0.50;;
73072;SDS011;61260;51.090;-1.786;2022-09-19T02:56:53;1.50;;;0.50;;
73072;SDS011;61260;51.090;-1.786;2022-09-19T02:59:28;1.20;;;0.50;;
73072;SDS011;61260;51.090;-1.786;2022-09-19T03:02:02;1.70;;;0.70;;
73072;SDS011;61260;51.090;-1.786;2022-09-19T03:04:37;2.10;;;0.70;;
73072;SDS011;61260;51.090;-1.786;2022-09-19T03:07:11;1.00;;;0.70;;
73072;SDS011;61260;51.090;-1.786;2022-09-19T03:09:44;1.10;;;0.70;;
73072;SDS011;61260;51.090;-1.786;2022-09-19T03:12:18;1.00;;;0.60;;
73072;SDS011;61260;51.090;-1.786;2022-09-19T03:14:53;1.60;;;0.90;;
73072;SDS011;61260;51.090;-1.786;2022-09-19T03:17:26;3.10;;;0.60;;
73072;SDS011;61260;51.090;-1.786;2022-09-19T03:20:03;1.90;;;0.80;;
73072;SDS011;61260;51.090;-1.786;2022-09-19T03:22:39;1.90;;;0.80;;
73072;SDS011;61260;51.090;-1.786;2022-09-19T03:25:11;2.20;;;0.80;;
73072;SDS011;61260;51.090;-1.786;2022-09-19T03:27:41;1.80;;;0.70;;
73072;SDS011;61260;51.090;-1.786;2022-09-19T03:30:12;1.70;;;0.80;;
73072;SDS011;61260;51.090;-1.786;2022-09-19T03:32:42;0.70;;;0.50;;
73072;SDS011;61260;51.090;-1.786;2022-09-19T03:35:13;2.10;;;0.80;;
73072;SDS011;61260;51.090;-1.786;2022-09-19T03:37:44;1.20;;;0.70;;
73072;SDS011;61260;51.090;-1.786;2022-09-19T03:40:14;2.00;;;0.80;;
73072;SDS011;61260;51.090;-1.786;2022-09-19T03:42:45;1.30;;;0.80;;
73072;SDS011;61260;51.090;-1.786;2022-09-19T03:45:17;1.90;;;1.00;;
73072;SDS011;61260;51.090;-1.786;2022-09-19T03:47:48;1.60;;;0.70;;
73072;SDS011;61260;51.090;-1.786;2022-09-19T03:50:18;2.60;;;0.90;;
73072;SDS011;61260;51.090;-1.786;2022-09-19T03:52:48;1.90;;;0.80;;
73072;SDS011;61260;51.090;-1.786;2022-09-19T03:55:17;1.00;;;0.50;;
73072;SDS011;61260;51.090;-1.786;2022-09-19T03:57:48;1.20;;;0.60;;
73072;SDS011;61260;51.090;-1.786;2022-09-19T04:00:18;1.60;;;0.70;;
73072;SDS011;61260;51.090;-1.786;2022-09-19T04:02:49;1.20;;;0.60;;
73072;SDS011;61260;51.090;-1.786;2022-09-19T04:05:20;1.20;;;0.70;;
73072;SDS011;61260;51.090;-1.786;2022-09-19T04:07:50;0.80;;;0.70;;
73072;SDS011;61260;51.090;-1.786;2022-09-19T04:10:21;2.90;;;0.90;;
73072;SDS011;61260;51.090;-1.786;2022-09-19T04:12:51;1.30;;;0.70;;
73072;SDS011;61260;51.090;-1.786;2022-09-19T04:15:22;1.90;;;0.90;;
73072;SDS011;61260;51.090;-1.786;2022-09-19T04:17:52;1.20;;;0.70;;
73072;SDS011;61260;51.090;-1.786;2022-09-19T04:20:23;0.80;;;0.60;;
73072;SDS011;61260;51.090;-1.786;2022-09-19T04:25:27;1.30;;;0.70;;
73072;SDS011;61260;51.090;-1.786;2022-09-19T04:28:01;1.40;;;0.80;;
73072;SDS011;61260;51.090;-1.786;2022-09-19T04:30:34;1.90;;;1.10;;
73072;SDS011;61260;51.090;-1.786;2022-09-19T04:33:05;1.10;;;0.70;;
73072;SDS011;61260;51.090;-1.786;2022-09-19T04:35:37;3.10;;;0.80;;
73072;SDS011;61260;51.090;-1.786;2022-09-19T04:38:08;1.60;;;0.80;;
73072;SDS011;61260;51.090;-1.786;2022-09-19T04:40:44;1.90;;;0.70;;
73072;SDS011;61260;51.090;-1.786;2022-09-19T04:43:16;2.80;;;0.80;;
73072;SDS011;61260;51.090;-1.786;2022-09-19T04:45:47;2.00;;;0.90;;
73072;SDS011;61260;51.090;-1.786;2022-09-19T04:48:17;0.80;;;0.60;;
73072;SDS011;61260;51.090;-1.786;2022-09-19T04:50:49;1.30;;;0.70;;
73072;SDS011;61260;51.090;-1.786;2022-09-19T04:53:20;0.60;;;0.40;;
73072;SDS011;61260;51.090;-1.786;2022-09-19T04:55:56;1.00;;;0.80;;
73072;SDS011;61260;51.090;-1.786;2022-09-19T04:58:26;1.70;;;0.60;;
73072;SDS011;61260;51.090;-1.786;2022-09-19T05:00:57;2.60;;;0.90;;
73072;SDS011;61260;51.090;-1.786;2022-09-19T05:03:26;2.10;;;1.20;;
73072;SDS011;61260;51.090;-1.786;2022-09-19T05:05:57;1.50;;;1.00;;
73072;SDS011;61260;51.090;-1.786;2022-09-19T05:08:28;2.40;;;0.90;;
73072;SDS011;61260;51.090;-1.786;2022-09-19T05:11:00;1.50;;;0.90;;
73072;SDS011;61260;51.090;-1.786;2022-09-19T05:13:33;1.30;;;0.90;;
73072;SDS011;61260;51.090;-1.786;2022-09-19T05:16:06;1.80;;;0.90;;
73072;SDS011;61260;51.090;-1.786;2022-09-19T05:18:40;1.70;;;0.70;;
73072;SDS011;61260;51.090;-1.786;2022-09-19T05:21:11;1.10;;;0.70;;
73072;SDS011;61260;51.090;-1.786;2022-09-19T05:23:46;1.20;;;0.90;;
73072;SDS011;61260;51.090;-1.786;2022-09-19T05:26:16;1.70;;;0.80;;
73072;SDS011;61260;51.090;-1.786;2022-09-19T05:28:45;1.70;;;0.80;;
73072;SDS011;61260;51.090;-1.786;2022-09-19T05:31:16;2.00;;;0.90;;
73072;SDS011;61260;51.090;-1.786;2022-09-19T05:33:47;1.30;;;0.90;;
73072;SDS011;61260;51.090;-1.786;2022-09-19T05:36:18;1.40;;;0.80;;
73072;SDS011;61260;51.090;-1.786;2022-09-19T05:38:48;1.00;;;0.70;;
73072;SDS011;61260;51.090;-1.786;2022-09-19T05:41:18;0.90;;;0.50;;
73072;SDS011;61260;51.090;-1.786;2022-09-19T05:43:48;1.10;;;0.70;;
73072;SDS011;61260;51.090;-1.786;2022-09-19T05:46:18;1.20;;;0.60;;
73072;SDS011;61260;51.090;-1.786;2022-09-19T05:48:50;1.50;;;0.80;;
73072;SDS011;61260;51.090;-1.786;2022-09-19T05:51:20;1.20;;;0.80;;
73072;SDS011;61260;51.090;-1.786;2022-09-19T05:53:51;1.70;;;0.70;;
73072;SDS011;61260;51.090;-1.786;2022-09-19T05:56:21;2.40;;;0.90;;
73072;SDS011;61260;51.090;-1.786;2022-09-19T05:58:55;1.70;;;0.90;;
73072;SDS011;61260;51.090;-1.786;2022-09-19T06:01:25;2.10;;;1.00;;
73072;SDS011;61260;51.090;-1.786;2022-09-19T06:03:56;2.10;;;1.30;;
73072;SDS011;61260;51.090;-1.786;2022-09-19T06:06:28;2.10;;;1.40;;
73072;SDS011;61260;51.090;-1.786;2022-09-19T06:08:58;2.20;;;1.20;;
73072;SDS011;61260;51.090;-1.786;2022-09-19T06:11:29;2.60;;;1.20;;
73072;SDS011;61260;51.090;-1.786;2022-09-19T06:13:59;3.10;;;1.00;;
73072;SDS011;61260;51.090;-1.786;2022-09-19T06:16:42;2.70;;;1.00;;
73072;SDS011;61260;51.090;-1.786;2022-09-19T06:19:13;1.70;;;0.90;;
73072;SDS011;61260;51.090;-1.786;2022-09-19T06:21:43;1.80;;;1.00;;
73072;SDS011;61260;51.090;-1.786;2022-09-19T06:24:13;1.60;;;1.20;;
73072;SDS011;61260;51.090;-1.786;2022-09-19T06:26:43;1.60;;;0.90;;
73072;SDS011;61260;51.090;-1.786;2022-09-19T06:29:13;1.40;;;0.80;;
73072;SDS011;61260;51.090;-1.786;2022-09-19T06:31:44;2.40;;;0.90;;
73072;SDS011;61260;51.090;-1.786;2022-09-19T06:34:15;2.30;;;1.10;;
73072;SDS011;61260;51.090;-1.786;2022-09-19T06:36:47;1.80;;;0.90;;
73072;SDS011;61260;51.090;-1.786;2022-09-19T06:39:18;1.30;;;1.00;;
73072;SDS011;61260;51.090;-1.786;2022-09-19T06:41:48;2.00;;;0.90;;
73072;SDS011;61260;51.090;-1.786;2022-09-19T06:44:18;2.40;;;0.90;;
73072;SDS011;61260;51.090;-1.786;2022-09-19T06:46:49;2.20;;;1.20;;
73072;SDS011;61260;51.090;-1.786;2022-09-19T06:49:19;1.80;;;1.00;;
73072;SDS011;61260;51.090;-1.786;2022-09-19T06:51:50;3.20;;;1.30;;
73072;SDS011;61260;51.090;-1.786;2022-09-19T06:54:21;1.80;;;1.30;;
73072;SDS011;61260;51.090;-1.786;2022-09-19T06:56:51;2.90;;;1.30;;
73072;SDS011;61260;51.090;-1.786;2022-09-19T06:59:21;1.40;;;0.90;;
73072;SDS011;61260;51.090;-1.786;2022-09-19T07:01:51;2.00;;;1.00;;
73072;SDS011;61260;51.090;-1.786;2022-09-19T07:04:21;1.70;;;1.10;;
73072;SDS011;61260;51.090;-1.786;2022-09-19T07:06:52;1.40;;;1.10;;
73072;SDS011;61260;51.090;-1.786;2022-09-19T07:09:23;2.50;;;1.00;;
73072;SDS011;61260;51.090;-1.786;2022-09-19T07:11:53;2.60;;;1.00;;
73072;SDS011;61260;51.090;-1.786;2022-09-19T07:14:26;1.70;;;1.20;;
73072;SDS011;61260;51.090;-1.786;2022-09-19T07:16:57;1.40;;;0.90;;
73072;SDS011;61260;51.090;-1.786;2022-09-19T07:19:28;1.90;;;1.20;;
73072;SDS011;61260;51.090;-1.786;2022-09-19T07:21:58;2.10;;;1.00;;
73072;SDS011;61260;51.090;-1.786;2022-09-19T07:24:28;2.70;;;1.30;;
73072;SDS011;61260;51.090;-1.786;2022-09-19T07:26:58;1.60;;;1.10;;
73072;SDS011;61260;51.090;-1.786;2022-09-19T07:29:29;1.60;;;1.00;;
73072;SDS011;61260;51.090;-1.786;2022-09-19T07:32:05;1.60;;;1.00;;
73072;SDS011;61260;51.090;-1.786;2022-09-19T07:34:35;2.30;;;1.50;;
73072;SDS011;61260;51.090;-1.786;2022-09-19T07:37:06;1.80;;;1.00;;
73072;SDS011;61260;51.090;-1.786;2022-09-19T07:39:37;2.10;;;0.90;;
73072;SDS011;61260;51.090;-1.786;2022-09-19T07:42:07;2.10;;;1.00;;
73072;SDS011;61260;51.090;-1.786;2022-09-19T07:44:37;2.20;;;1.20;;
73072;SDS011;61260;51.090;-1.786;2022-09-19T07:47:08;2.40;;;1.40;;
73072;SDS011;61260;51.090;-1.786;2022-09-19T07:49:54;1.60;;;1.00;;
73072;SDS011;61260;51.090;-1.786;2022-09-19T07:52:24;1.50;;;0.80;;
73072;SDS011;61260;51.090;-1.786;2022-09-19T07:54:53;1.50;;;1.00;;
73072;SDS011;61260;51.090;-1.786;2022-09-19T07:57:23;1.50;;;1.00;;
73072;SDS011;61260;51.090;-1.786;2022-09-19T07:59:53;1.70;;;0.90;;
73072;SDS011;61260;51.090;-1.786;2022-09-19T08:02:23;1.40;;;0.90;;
73072;SDS011;61260;51.090;-1.786;2022-09-19T08:04:54;2.00;;;0.70;;
73072;SDS011;61260;51.090;-1.786;2022-09-19T08:07:24;3.10;;;1.40;;
73072;SDS011;61260;51.090;-1.786;2022-09-19T08:09:54;1.70;;;0.90;;
73072;SDS011;61260;51.090;-1.786;2022-09-19T08:12:23;1.60;;;0.90;;
73072;SDS011;61260;51.090;-1.786;2022-09-19T08:14:54;1.20;;;1.00;;
73072;SDS011;61260;51.090;-1.786;2022-09-19T08:17:24;1.60;;;1.00;;
73072;SDS011;61260;51.090;-1.786;2022-09-19T08:19:54;1.50;;;1.10;;
73072;SDS011;61260;51.090;-1.786;2022-09-19T08:22:25;1.60;;;1.00;;
73072;SDS011;61260;51.090;-1.786;2022-09-19T08:25:04;2.50;;;1.00;;
73072;SDS011;61260;51.090;-1.786;2022-09-19T08:27:35;1.50;;;1.00;;
73072;SDS011;61260;51.090;-1.786;2022-09-19T08:30:06;1.00;;;0.80;;
73072;SDS011;61260;51.090;-1.786;2022-09-19T08:32:39;2.60;;;0.80;;
73072;SDS011;61260;51.090;-1.786;2022-09-19T08:35:11;2.40;;;0.90;;
73072;SDS011;61260;51.090;-1.786;2022-09-19T08:37:42;1.60;;;0.70;;
73072;SDS011;61260;51.090;-1.786;2022-09-19T08:40:14;1.20;;;0.90;;
73072;SDS011;61260;51.090;-1.786;2022-09-19T08:42:55;1.10;;;0.80;;
73072;SDS011;61260;51.090;-1.786;2022-09-19T08:45:36;3.40;;;1.00;;
73072;SDS011;61260;51.090;-1.786;2022-09-19T08:48:23;1.70;;;0.80;;
73072;SDS011;61260;51.090;-1.786;2022-09-19T08:50:58;1.50;;;0.80;;
73072;SDS011;61260;51.090;-1.786;2022-09-19T08:53:35;2.00;;;0.80;;
73072;SDS011;61260;51.090;-1.786;2022-09-19T08:56:10;2.00;;;0.80;;
73072;SDS011;61260;51.090;-1.786;2022-09-19T08:58:46;1.70;;;0.80;;
73072;SDS011;61260;51.090;-1.786;2022-09-19T09:01:19;1.20;;;0.70;;
73072;SDS011;61260;51.090;-1.786;2022-09-19T09:03:53;2.60;;;0.90;;
73072;SDS011;61260;51.090;-1.786;2022-09-19T09:06:35;2.10;;;0.90;;
73072;SDS011;61260;51.090;-1.786;2022-09-19T09:09:19;0.90;;;0.60;;
73072;SDS011;61260;51.090;-1.786;2022-09-19T09:11:57;1.30;;;0.70;;
73072;SDS011;61260;51.090;-1.786;2022-09-19T09:14:39;2.30;;;0.60;;
73072;SDS011;61260;51.090;-1.786;2022-09-19T09:17:18;2.40;;;0.60;;
73072;SDS011;61260;51.090;-1.786;2022-09-19T09:23:06;1.30;;;0.80;;
73072;SDS011;61260;51.090;-1.786;2022-09-19T09:25:48;1.40;;;0.70;;
73072;SDS011;61260;51.090;-1.786;2022-09-19T09:28:25;1.80;;;0.80;;
73072;SDS011;61260;51.090;-1.786;2022-09-19T09:31:03;2.10;;;0.70;;
73072;SDS011;61260;51.090;-1.786;2022-09-19T09:33:40;1.50;;;0.80;;
73072;SDS011;61260;51.090;-1.786;2022-09-19T09:36:21;1.40;;;0.80;;
73072;SDS011;61260;51.090;-1.786;2022-09-19T09:39:00;1.30;;;0.90;;
73072;SDS011;61260;51.090;-1.786;2022-09-19T09:41:37;2.30;;;1.00;;
73072;SDS011;61260;51.090;-1.786;2022-09-19T09:44:22;2.20;;;1.00;;
73072;SDS011;61260;51.090;-1.786;2022-09-19T09:47:13;3.40;;;1.20;;
73072;SDS011;61260;51.090;-1.786;2022-09-19T09:49:57;3.20;;;1.20;;
73072;SDS011;61260;51.090;-1.786;2022-09-19T09:52:40;2.70;;;1.40;;
73072;SDS011;61260;51.090;-1.786;2022-09-19T09:58:33;3.90;;;1.60;;
73072;SDS011;61260;51.090;-1.786;2022-09-19T10:01:16;3.20;;;1.20;;
73072;SDS011;61260;51.090;-1.786;2022-09-19T10:04:12;2.20;;;1.60;;
73072;SDS011;61260;51.090;-1.786;2022-09-19T10:06:51;1.90;;;1.40;;
73072;SDS011;61260;51.090;-1.786;2022-09-19T10:09:29;2.90;;;1.50;;
73072;SDS011;61260;51.090;-1.786;2022-09-19T10:12:02;3.10;;;1.80;;
73072;SDS011;61260;51.090;-1.786;2022-09-19T10:14:40;2.30;;;1.50;;
73072;SDS011;61260;51.090;-1.786;2022-09-19T10:17:13;3.20;;;1.80;;
73072;SDS011;61260;51.090;-1.786;2022-09-19T10:19:46;2.10;;;1.60;;
73072;SDS011;61260;51.090;-1.786;2022-09-19T10:22:19;2.10;;;1.10;;
73072;SDS011;61260;51.090;-1.786;2022-09-19T10:24:51;2.30;;;1.10;;
73072;SDS011;61260;51.090;-1.786;2022-09-19T10:27:25;1.70;;;1.30;;
73072;SDS011;61260;51.090;-1.786;2022-09-19T10:30:10;2.70;;;1.50;;
73072;SDS011;61260;51.090;-1.786;2022-09-19T10:32:45;2.80;;;1.50;;
73072;SDS011;61260;51.090;-1.786;2022-09-19T10:35:22;1.80;;;1.30;;
73072;SDS011;61260;51.090;-1.786;2022-09-19T10:37:57;2.30;;;1.40;;
73072;SDS011;61260;51.090;-1.786;2022-09-19T10:40:28;2.70;;;1.40;;
73072;SDS011;61260;51.090;-1.786;2022-09-19T10:43:00;1.80;;;1.20;;
73072;SDS011;61260;51.090;-1.786;2022-09-19T10:45:32;2.20;;;1.30;;
73072;SDS011;61260;51.090;-1.786;2022-09-19T10:48:10;3.00;;;1.30;;
73072;SDS011;61260;51.090;-1.786;2022-09-19T10:50:46;2.30;;;1.70;;
73072;SDS011;61260;51.090;-1.786;2022-09-19T10:53:19;1.80;;;1.30;;
73072;SDS011;61260;51.090;-1.786;2022-09-19T10:55:52;2.60;;;1.30;;
73072;SDS011;61260;51.090;-1.786;2022-09-19T10:58:27;2.30;;;1.30;;
73072;SDS011;61260;51.090;-1.786;2022-09-19T11:01:02;2.70;;;1.30;;
73072;SDS011;61260;51.090;-1.786;2022-09-19T11:03:35;2.70;;;1.40;;
73072;SDS011;61260;51.090;-1.786;2022-09-19T11:06:08;1.90;;;1.30;;
73072;SDS011;61260;51.090;-1.786;2022-09-19T11:08:40;1.80;;;1.30;;
73072;SDS011;61260;51.090;-1.786;2022-09-19T11:11:22;2.20;;;1.50;;
73072;SDS011;61260;51.090;-1.786;2022-09-19T11:20:05;2.70;;;1.40;;
73072;SDS011;61260;51.090;-1.786;2022-09-19T11:22:47;2.00;;;1.40;;
73072;SDS011;61260;51.090;-1.786;2022-09-19T11:25:41;2.50;;;1.20;;
73072;SDS011;61260;51.090;-1.786;2022-09-19T11:28:21;2.90;;;1.30;;
73072;SDS011;61260;51.090;-1.786;2022-09-19T11:31:04;2.60;;;1.30;;
73072;SDS011;61260;51.090;-1.786;2022-09-19T11:33:46;2.10;;;1.20;;
73072;SDS011;61260;51.090;-1.786;2022-09-19T11:36:30;3.50;;;2.00;;
73072;SDS011;61260;51.090;-1.786;2022-09-19T11:39:09;1.60;;;1.20;;
73072;SDS011;61260;51.090;-1.786;2022-09-19T11:41:53;1.90;;;1.40;;
73072;SDS011;61260;51.090;-1.786;2022-09-19T11:44:39;1.90;;;1.20;;
73072;SDS011;61260;51.090;-1.786;2022-09-19T11:47:27;2.20;;;1.10;;
73072;SDS011;61260;51.090;-1.786;2022-09-19T11:50:19;2.50;;;1.10;;
73072;SDS011;61260;51.090;-1.786;2022-09-19T11:56:05;1.60;;;1.30;;
73072;SDS011;61260;51.090;-1.786;2022-09-19T11:58:53;2.00;;;1.10;;
73072;SDS011;61260;51.090;-1.786;2022-09-19T12:01:35;1.80;;;1.20;;
73072;SDS011;61260;51.090;-1.786;2022-09-19T12:04:17;1.90;;;1.30;;
73072;SDS011;61260;51.090;-1.786;2022-09-19T12:07:05;2.10;;;1.30;;
73072;SDS011;61260;51.090;-1.786;2022-09-19T12:09:51;1.20;;;0.90;;
73072;SDS011;61260;51.090;-1.786;2022-09-19T12:12:27;1.50;;;1.00;;
73072;SDS011;61260;51.090;-1.786;2022-09-19T12:15:05;1.20;;;1.00;;
73072;SDS011;61260;51.090;-1.786;2022-09-19T12:17:52;1.60;;;0.90;;
73072;SDS011;61260;51.090;-1.786;2022-09-19T12:20:29;1.50;;;0.90;;
73072;SDS011;61260;51.090;-1.786;2022-09-19T12:23:05;1.60;;;1.00;;
73072;SDS011;61260;51.090;-1.786;2022-09-19T12:25:58;1.50;;;1.00;;
73072;SDS011;61260;51.090;-1.786;2022-09-19T12:28:31;2.20;;;1.20;;
73072;SDS011;61260;51.090;-1.786;2022-09-19T12:31:08;2.40;;;0.90;;
73072;SDS011;61260;51.090;-1.786;2022-09-19T12:33:44;1.30;;;1.00;;
73072;SDS011;61260;51.090;-1.786;2022-09-19T12:36:20;1.20;;;0.90;;
73072;SDS011;61260;51.090;-1.786;2022-09-19T12:39:00;2.30;;;1.20;;
73072;SDS011;61260;51.090;-1.786;2022-09-19T12:41:38;1.50;;;1.10;;
73072;SDS011;61260;51.090;-1.786;2022-09-19T12:44:15;1.50;;;1.10;;
73072;SDS011;61260;51.090;-1.786;2022-09-19T12:46:55;1.10;;;1.00;;
73072;SDS011;61260;51.090;-1.786;2022-09-19T12:49:32;1.80;;;1.00;;
73072;SDS011;61260;51.090;-1.786;2022-09-19T12:52:10;1.30;;;0.80;;
73072;SDS011;61260;51.090;-1.786;2022-09-19T12:54:48;1.10;;;0.90;;
73072;SDS011;61260;51.090;-1.786;2022-09-19T12:57:27;1.00;;;0.80;;
73072;SDS011;61260;51.090;-1.786;2022-09-19T13:00:04;1.10;;;0.90;;
73072;SDS011;61260;51.090;-1.786;2022-09-19T13:02:42;1.60;;;0.80;;
73072;SDS011;61260;51.090;-1.786;2022-09-19T13:05:18;2.80;;;0.80;;
73072;SDS011;61260;51.090;-1.786;2022-09-19T13:07:57;0.60;;;0.50;;
73072;SDS011;61260;51.090;-1.786;2022-09-19T13:10:34;0.70;;;0.60;;
73072;SDS011;61260;51.090;-1.786;2022-09-19T13:13:09;1.70;;;0.70;;
73072;SDS011;61260;51.090;-1.786;2022-09-19T13:15:49;1.20;;;0.70;;
73072;SDS011;61260;51.090;-1.786;2022-09-19T13:18:22;1.30;;;0.70;;
73072;SDS011;61260;51.090;-1.786;2022-09-19T13:21:15;0.90;;;0.80;;
73072;SDS011;61260;51.090;-1.786;2022-09-19T13:24:04;1.00;;;0.50;;
73072;SDS011;61260;51.090;-1.786;2022-09-19T13:26:38;1.70;;;0.70;;
73072;SDS011;61260;51.090;-1.786;2022-09-19T13:29:23;1.20;;;0.50;;
73072;SDS011;61260;51.090;-1.786;2022-09-19T13:32:27;1.40;;;0.60;;
73072;SDS011;61260;51.090;-1.786;2022-09-19T13:35:11;2.20;;;0.60;;
73072;SDS011;61260;51.090;-1.786;2022-09-19T13:37:47;1.20;;;0.70;;
73072;SDS011;61260;51.090;-1.786;2022-09-19T13:40:32;1.20;;;0.50;;
73072;SDS011;61260;51.090;-1.786;2022-09-19T13:43:17;1.00;;;0.60;;
73072;SDS011;61260;51.090;-1.786;2022-09-19T13:45:54;1.30;;;0.70;;
73072;SDS011;61260;51.090;-1.786;2022-09-19T13:48:34;1.50;;;0.50;;
73072;SDS011;61260;51.090;-1.786;2022-09-19T13:51:21;0.80;;;0.50;;
73072;SDS011;61260;51.090;-1.786;2022-09-19T13:54:31;1.00;;;0.70;;
73072;SDS011;61260;51.090;-1.786;2022-09-19T13:57:22;1.50;;;0.70;;
73072;SDS011;61260;51.090;-1.786;2022-09-19T13:59:55;0.80;;;0.60;;
73072;SDS011;61260;51.090;-1.786;2022-09-19T14:02:28;1.30;;;0.80;;
73072;SDS011;61260;51.090;-1.786;2022-09-19T14:05:03;1.00;;;0.70;;
73072;SDS011;61260;51.090;-1.786;2022-09-19T14:07:43;0.70;;;0.60;;
73072;SDS011;61260;51.090;-1.786;2022-09-19T14:10:23;1.00;;;0.50;;
73072;SDS011;61260;51.090;-1.786;2022-09-19T14:13:04;0.50;;;0.50;;
73072;SDS011;61260;51.090;-1.786;2022-09-19T14:16:10;0.80;;;0.60;;
73072;SDS011;61260;51.090;-1.786;2022-09-19T14:18:53;0.80;;;0.50;;
73072;SDS011;61260;51.090;-1.786;2022-09-19T14:27:38;0.60;;;0.50;;
73072;SDS011;61260;51.090;-1.786;2022-09-19T14:30:22;1.30;;;0.60;;
73072;SDS011;61260;51.090;-1.786;2022-09-19T14:33:38;1.10;;;0.60;;
73072;SDS011;61260;51.090;-1.786;2022-09-19T14:39:50;0.70;;;0.60;;
73072;SDS011;61260;51.090;-1.786;2022-09-19T14:42:50;1.10;;;0.50;;
73072;SDS011;61260;51.090;-1.786;2022-09-19T14:45:31;0.40;;;0.40;;
73072;SDS011;61260;51.090;-1.786;2022-09-19T14:48:17;0.80;;;0.60;;
73072;SDS011;61260;51.090;-1.786;2022-09-19T14:51:02;1.70;;;0.60;;
73072;SDS011;61260;51.090;-1.786;2022-09-19T14:53:43;0.50;;;0.50;;
73072;SDS011;61260;51.090;-1.786;2022-09-19T14:56:16;1.90;;;0.50;;
73072;SDS011;61260;51.090;-1.786;2022-09-19T14:58:52;1.70;;;0.70;;
73072;SDS011;61260;51.090;-1.786;2022-09-19T15:01:24;1.00;;;0.60;;
73072;SDS011;61260;51.090;-1.786;2022-09-19T15:03:57;0.40;;;0.30;;
73072;SDS011;61260;51.090;-1.786;2022-09-19T15:06:30;0.60;;;0.40;;
73072;SDS011;61260;51.090;-1.786;2022-09-19T15:09:02;1.10;;;0.60;;
73072;SDS011;61260;51.090;-1.786;2022-09-19T15:11:33;0.70;;;0.50;;
73072;SDS011;61260;51.090;-1.786;2022-09-19T15:14:13;0.60;;;0.40;;
73072;SDS011;61260;51.090;-1.786;2022-09-19T15:16:48;1.30;;;0.60;;
73072;SDS011;61260;51.090;-1.786;2022-09-19T15:19:36;0.80;;;0.60;;
73072;SDS011;61260;51.090;-1.786;2022-09-19T15:22:14;1.20;;;0.60;;
73072;SDS011;61260;51.090;-1.786;2022-09-19T15:27:24;1.00;;;0.50;;
73072;SDS011;61260;51.090;-1.786;2022-09-19T15:29:55;1.20;;;0.50;;
73072;SDS011;61260;51.090;-1.786;2022-09-19T15:32:35;1.00;;;0.70;;
73072;SDS011;61260;51.090;-1.786;2022-09-19T15:35:12;0.70;;;0.60;;
73072;SDS011;61260;51.090;-1.786;2022-09-19T15:37:46;1.20;;;0.50;;
73072;SDS011;61260;51.090;-1.786;2022-09-19T15:40:18;1.30;;;0.70;;
73072;SDS011;61260;51.090;-1.786;2022-09-19T15:42:52;0.80;;;0.50;;
73072;SDS011;61260;51.090;-1.786;2022-09-19T15:45:40;1.70;;;0.50;;
73072;SDS011;61260;51.090;-1.786;2022-09-19T15:48:15;3.40;;;0.60;;
73072;SDS011;61260;51.090;-1.786;2022-09-19T15:50:49;1.10;;;0.60;;
73072;SDS011;61260;51.090;-1.786;2022-09-19T15:53:25;1.10;;;0.50;;
73072;SDS011;61260;51.090;-1.786;2022-09-19T15:56:04;0.80;;;0.60;;
73072;SDS011;61260;51.090;-1.786;2022-09-19T15:58:39;2.20;;;0.90;;